sensor_id;sensor_type;location;lat;lon;timestamp;P1;durP1;ratioP1;P2;durP2;ratioP2
75639;SDS011;64233;51.486;6.332;2023-05-10T00:00:34;14.90;;;8.38;;
75639;SDS011;64233;51.486;6.332;2023-05-10T00:03:00;15.50;;;8.55;;
75639;SDS011;64233;51.486;6.332;2023-05-10T00:05:25;12.55;;;7.35;;
75639;SDS011;64233;51.486;6.332;2023-05-10T00:07:50;14.93;;;8.77;;
75639;SDS011;64233;51.486;6.332;2023-05-10T00:10:16;15.02;;;7.72;;
75639;SDS011;64233;51.486;6.332;2023-05-10T00:12:41;17.65;;;9.55;;
75639;SDS011;64233;51.486;6.332;2023-05-10T00:15:07;14.40;;;7.70;;
75639;SDS011;64233;51.486;6.332;2023-05-10T00:17:33;18.58;;;10.38;;
75639;SDS011;64233;51.486;6.332;2023-05-10T00:19:58;14.55;;;8.30;;
75639;SDS011;64233;51.486;6.332;2023-05-10T00:22:23;16.52;;;9.65;;
75639;SDS011;64233;51.486;6.332;2023-05-10T00:24:49;15.95;;;9.40;;
75639;SDS011;64233;51.486;6.332;2023-05-10T00:27:14;17.45;;;9.18;;
75639;SDS011;64233;51.486;6.332;2023-05-10T00:29:39;22.05;;;9.25;;
75639;SDS011;64233;51.486;6.332;2023-05-10T00:32:05;15.82;;;8.18;;
75639;SDS011;64233;51.486;6.332;2023-05-10T00:34:31;17.08;;;9.65;;
75639;SDS011;64233;51.486;6.332;2023-05-10T00:36:56;16.25;;;8.98;;
75639;SDS011;64233;51.486;6.332;2023-05-10T00:39:21;15.40;;;8.52;;
75639;SDS011;64233;51.486;6.332;2023-05-10T00:41:47;15.73;;;9.32;;
75639;SDS011;64233;51.486;6.332;2023-05-10T00:44:12;16.08;;;8.52;;
75639;SDS011;64233;51.486;6.332;2023-05-10T00:46:37;18.30;;;9.43;;
75639;SDS011;64233;51.486;6.332;2023-05-10T00:49:03;13.20;;;7.38;;
75639;SDS011;64233;51.486;6.332;2023-05-10T00:51:29;15.00;;;7.90;;
75639;SDS011;64233;51.486;6.332;2023-05-10T00:53:54;15.05;;;7.70;;
75639;SDS011;64233;51.486;6.332;2023-05-10T00:56:20;14.35;;;7.40;;
75639;SDS011;64233;51.486;6.332;2023-05-10T00:58:48;15.70;;;8.40;;
75639;SDS011;64233;51.486;6.332;2023-05-10T01:01:13;13.52;;;7.47;;
75639;SDS011;64233;51.486;6.332;2023-05-10T01:06:11;12.55;;;7.13;;
75639;SDS011;64233;51.486;6.332;2023-05-10T01:08:37;13.98;;;7.68;;
75639;SDS011;64233;51.486;6.332;2023-05-10T01:11:03;13.77;;;6.85;;
75639;SDS011;64233;51.486;6.332;2023-05-10T01:13:33;13.23;;;7.15;;
75639;SDS011;64233;51.486;6.332;2023-05-10T01:16:01;14.15;;;6.65;;
75639;SDS011;64233;51.486;6.332;2023-05-10T01:18:30;15.63;;;8.77;;
75639;SDS011;64233;51.486;6.332;2023-05-10T01:21:01;15.32;;;8.15;;
75639;SDS011;64233;51.486;6.332;2023-05-10T01:23:44;17.75;;;8.23;;
75639;SDS011;64233;51.486;6.332;2023-05-10T01:32:04;14.25;;;6.97;;
75639;SDS011;64233;51.486;6.332;2023-05-10T01:34:37;14.15;;;7.28;;
75639;SDS011;64233;51.486;6.332;2023-05-10T01:37:12;14.50;;;6.88;;
75639;SDS011;64233;51.486;6.332;2023-05-10T01:39:51;13.32;;;6.70;;
75639;SDS011;64233;51.486;6.332;2023-05-10T01:42:25;14.23;;;7.55;;
75639;SDS011;64233;51.486;6.332;2023-05-10T01:44:58;11.90;;;6.95;;
75639;SDS011;64233;51.486;6.332;2023-05-10T01:50:15;11.88;;;6.68;;
75639;SDS011;64233;51.486;6.332;2023-05-10T01:52:43;11.13;;;6.05;;
75639;SDS011;64233;51.486;6.332;2023-05-10T01:55:14;11.18;;;5.80;;
75639;SDS011;64233;51.486;6.332;2023-05-10T01:57:42;11.35;;;6.03;;
75639;SDS011;64233;51.486;6.332;2023-05-10T02:00:09;12.43;;;6.68;;
75639;SDS011;64233;51.486;6.332;2023-05-10T02:02:39;11.48;;;5.82;;
75639;SDS011;64233;51.486;6.332;2023-05-10T02:05:07;8.73;;;4.97;;
75639;SDS011;64233;51.486;6.332;2023-05-10T02:07:35;11.02;;;5.60;;
75639;SDS011;64233;51.486;6.332;2023-05-10T02:10:02;10.10;;;5.55;;
75639;SDS011;64233;51.486;6.332;2023-05-10T02:12:29;12.25;;;6.60;;
75639;SDS011;64233;51.486;6.332;2023-05-10T02:14:56;12.93;;;5.88;;
75639;SDS011;64233;51.486;6.332;2023-05-10T02:17:23;9.80;;;5.47;;
75639;SDS011;64233;51.486;6.332;2023-05-10T02:19:50;12.25;;;5.80;;
75639;SDS011;64233;51.486;6.332;2023-05-10T02:22:17;10.32;;;4.95;;
75639;SDS011;64233;51.486;6.332;2023-05-10T02:24:43;11.80;;;6.50;;
75639;SDS011;64233;51.486;6.332;2023-05-10T02:27:10;11.02;;;5.70;;
75639;SDS011;64233;51.486;6.332;2023-05-10T02:29:37;13.70;;;6.68;;
75639;SDS011;64233;51.486;6.332;2023-05-10T02:32:03;11.77;;;6.65;;
75639;SDS011;64233;51.486;6.332;2023-05-10T02:34:30;12.00;;;6.47;;
75639;SDS011;64233;51.486;6.332;2023-05-10T02:36:56;13.88;;;6.72;;
75639;SDS011;64233;51.486;6.332;2023-05-10T02:39:23;13.27;;;6.47;;
75639;SDS011;64233;51.486;6.332;2023-05-10T02:41:50;11.18;;;6.22;;
75639;SDS011;64233;51.486;6.332;2023-05-10T02:44:17;11.82;;;6.55;;
75639;SDS011;64233;51.486;6.332;2023-05-10T02:46:44;15.60;;;7.43;;
75639;SDS011;64233;51.486;6.332;2023-05-10T02:49:10;14.40;;;6.90;;
75639;SDS011;64233;51.486;6.332;2023-05-10T02:51:36;13.57;;;7.80;;
75639;SDS011;64233;51.486;6.332;2023-05-10T02:54:12;11.77;;;5.28;;
75639;SDS011;64233;51.486;6.332;2023-05-10T02:56:46;15.07;;;7.65;;
75639;SDS011;64233;51.486;6.332;2023-05-10T02:59:14;13.40;;;6.80;;
75639;SDS011;64233;51.486;6.332;2023-05-10T03:01:40;12.23;;;7.15;;
75639;SDS011;64233;51.486;6.332;2023-05-10T03:04:05;11.55;;;6.95;;
75639;SDS011;64233;51.486;6.332;2023-05-10T03:06:31;17.10;;;8.10;;
75639;SDS011;64233;51.486;6.332;2023-05-10T03:08:56;17.42;;;7.75;;
75639;SDS011;64233;51.486;6.332;2023-05-10T03:13:49;16.77;;;7.83;;
75639;SDS011;64233;51.486;6.332;2023-05-10T03:16:41;14.55;;;7.20;;
75639;SDS011;64233;51.486;6.332;2023-05-10T03:19:19;16.45;;;8.48;;
75639;SDS011;64233;51.486;6.332;2023-05-10T03:21:52;17.30;;;8.27;;
75639;SDS011;64233;51.486;6.332;2023-05-10T03:24:18;16.30;;;8.90;;
75639;SDS011;64233;51.486;6.332;2023-05-10T03:26:47;17.27;;;8.88;;
75639;SDS011;64233;51.486;6.332;2023-05-10T03:29:13;19.73;;;10.38;;
75639;SDS011;64233;51.486;6.332;2023-05-10T03:31:40;26.85;;;10.38;;
75639;SDS011;64233;51.486;6.332;2023-05-10T03:34:06;23.15;;;11.02;;
75639;SDS011;64233;51.486;6.332;2023-05-10T03:36:31;24.92;;;11.45;;
75639;SDS011;64233;51.486;6.332;2023-05-10T03:38:57;25.58;;;11.55;;
75639;SDS011;64233;51.486;6.332;2023-05-10T03:41:22;28.58;;;12.50;;
75639;SDS011;64233;51.486;6.332;2023-05-10T03:43:48;28.38;;;12.65;;
75639;SDS011;64233;51.486;6.332;2023-05-10T03:46:13;34.65;;;13.20;;
75639;SDS011;64233;51.486;6.332;2023-05-10T03:48:38;29.55;;;11.68;;
75639;SDS011;64233;51.486;6.332;2023-05-10T03:51:04;29.40;;;12.98;;
75639;SDS011;64233;51.486;6.332;2023-05-10T03:53:29;31.02;;;13.23;;
75639;SDS011;64233;51.486;6.332;2023-05-10T03:55:54;28.75;;;13.27;;
75639;SDS011;64233;51.486;6.332;2023-05-10T03:58:20;27.10;;;13.65;;
75639;SDS011;64233;51.486;6.332;2023-05-10T04:00:45;28.50;;;13.45;;
75639;SDS011;64233;51.486;6.332;2023-05-10T04:03:11;30.67;;;13.50;;
75639;SDS011;64233;51.486;6.332;2023-05-10T04:05:36;29.85;;;15.07;;
75639;SDS011;64233;51.486;6.332;2023-05-10T04:08:02;27.23;;;12.75;;
75639;SDS011;64233;51.486;6.332;2023-05-10T04:10:28;28.98;;;13.30;;
75639;SDS011;64233;51.486;6.332;2023-05-10T04:12:53;35.05;;;14.13;;
75639;SDS011;64233;51.486;6.332;2023-05-10T04:15:18;30.02;;;13.98;;
75639;SDS011;64233;51.486;6.332;2023-05-10T04:17:44;33.53;;;14.52;;
75639;SDS011;64233;51.486;6.332;2023-05-10T04:20:09;37.65;;;15.82;;
75639;SDS011;64233;51.486;6.332;2023-05-10T04:22:35;29.17;;;14.80;;
75639;SDS011;64233;51.486;6.332;2023-05-10T04:25:00;32.65;;;13.40;;
75639;SDS011;64233;51.486;6.332;2023-05-10T04:27:25;26.70;;;14.05;;
75639;SDS011;64233;51.486;6.332;2023-05-10T04:29:51;31.90;;;13.50;;
75639;SDS011;64233;51.486;6.332;2023-05-10T04:32:16;27.58;;;13.35;;
75639;SDS011;64233;51.486;6.332;2023-05-10T04:34:42;31.83;;;15.23;;
75639;SDS011;64233;51.486;6.332;2023-05-10T04:37:08;32.08;;;14.13;;
75639;SDS011;64233;51.486;6.332;2023-05-10T04:39:33;24.75;;;12.70;;
75639;SDS011;64233;51.486;6.332;2023-05-10T04:41:59;25.55;;;13.65;;
75639;SDS011;64233;51.486;6.332;2023-05-10T04:44:24;31.40;;;14.20;;
75639;SDS011;64233;51.486;6.332;2023-05-10T04:46:49;29.33;;;13.63;;
75639;SDS011;64233;51.486;6.332;2023-05-10T04:49:14;27.45;;;13.75;;
75639;SDS011;64233;51.486;6.332;2023-05-10T04:51:40;31.27;;;13.98;;
75639;SDS011;64233;51.486;6.332;2023-05-10T04:54:05;28.80;;;13.50;;
75639;SDS011;64233;51.486;6.332;2023-05-10T04:56:30;31.10;;;14.05;;
75639;SDS011;64233;51.486;6.332;2023-05-10T04:58:55;32.67;;;15.52;;
75639;SDS011;64233;51.486;6.332;2023-05-10T05:01:21;34.10;;;14.65;;
75639;SDS011;64233;51.486;6.332;2023-05-10T05:03:47;33.55;;;16.77;;
75639;SDS011;64233;51.486;6.332;2023-05-10T05:06:13;33.30;;;14.85;;
75639;SDS011;64233;51.486;6.332;2023-05-10T05:08:38;31.83;;;14.70;;
75639;SDS011;64233;51.486;6.332;2023-05-10T05:11:03;33.40;;;14.57;;
75639;SDS011;64233;51.486;6.332;2023-05-10T05:13:29;34.58;;;15.48;;
75639;SDS011;64233;51.486;6.332;2023-05-10T05:15:54;31.23;;;15.48;;
75639;SDS011;64233;51.486;6.332;2023-05-10T05:18:19;33.25;;;15.00;;
75639;SDS011;64233;51.486;6.332;2023-05-10T05:20:45;34.13;;;15.48;;
75639;SDS011;64233;51.486;6.332;2023-05-10T05:23:10;36.92;;;15.68;;
75639;SDS011;64233;51.486;6.332;2023-05-10T05:25:35;34.97;;;14.55;;
75639;SDS011;64233;51.486;6.332;2023-05-10T05:28:01;34.70;;;15.00;;
75639;SDS011;64233;51.486;6.332;2023-05-10T05:30:26;37.92;;;15.15;;
75639;SDS011;64233;51.486;6.332;2023-05-10T05:32:51;38.80;;;16.60;;
75639;SDS011;64233;51.486;6.332;2023-05-10T05:35:17;38.05;;;16.42;;
75639;SDS011;64233;51.486;6.332;2023-05-10T05:37:42;32.17;;;15.43;;
75639;SDS011;64233;51.486;6.332;2023-05-10T05:40:08;36.38;;;15.80;;
75639;SDS011;64233;51.486;6.332;2023-05-10T05:42:33;36.83;;;15.68;;
75639;SDS011;64233;51.486;6.332;2023-05-10T05:44:58;30.70;;;15.75;;
75639;SDS011;64233;51.486;6.332;2023-05-10T05:47:24;43.22;;;16.58;;
75639;SDS011;64233;51.486;6.332;2023-05-10T05:49:49;38.38;;;17.15;;
75639;SDS011;64233;51.486;6.332;2023-05-10T05:52:14;38.70;;;16.70;;
75639;SDS011;64233;51.486;6.332;2023-05-10T05:54:39;39.05;;;17.20;;
75639;SDS011;64233;51.486;6.332;2023-05-10T05:57:05;40.47;;;18.38;;
75639;SDS011;64233;51.486;6.332;2023-05-10T05:59:30;40.90;;;16.77;;
75639;SDS011;64233;51.486;6.332;2023-05-10T06:01:55;42.47;;;16.77;;
75639;SDS011;64233;51.486;6.332;2023-05-10T06:04:21;45.45;;;18.38;;
75639;SDS011;64233;51.486;6.332;2023-05-10T06:06:46;43.33;;;16.95;;
75639;SDS011;64233;51.486;6.332;2023-05-10T06:09:11;33.30;;;15.50;;
75639;SDS011;64233;51.486;6.332;2023-05-10T06:11:37;39.58;;;16.25;;
75639;SDS011;64233;51.486;6.332;2023-05-10T06:14:02;38.97;;;17.10;;
75639;SDS011;64233;51.486;6.332;2023-05-10T06:16:33;35.40;;;17.05;;
75639;SDS011;64233;51.486;6.332;2023-05-10T06:18:58;42.38;;;16.40;;
75639;SDS011;64233;51.486;6.332;2023-05-10T06:21:24;36.25;;;15.25;;
75639;SDS011;64233;51.486;6.332;2023-05-10T06:23:49;36.17;;;17.10;;
75639;SDS011;64233;51.486;6.332;2023-05-10T06:26:14;39.28;;;16.42;;
75639;SDS011;64233;51.486;6.332;2023-05-10T06:28:40;33.40;;;14.13;;
75639;SDS011;64233;51.486;6.332;2023-05-10T06:31:05;42.83;;;15.93;;
75639;SDS011;64233;51.486;6.332;2023-05-10T06:33:31;36.33;;;15.18;;
75639;SDS011;64233;51.486;6.332;2023-05-10T06:35:57;34.70;;;14.23;;
75639;SDS011;64233;51.486;6.332;2023-05-10T06:38:22;36.45;;;15.73;;
75639;SDS011;64233;51.486;6.332;2023-05-10T06:40:48;34.83;;;14.57;;
75639;SDS011;64233;51.486;6.332;2023-05-10T06:43:13;37.05;;;15.27;;
75639;SDS011;64233;51.486;6.332;2023-05-10T06:45:39;39.00;;;17.13;;
75639;SDS011;64233;51.486;6.332;2023-05-10T06:48:04;42.35;;;16.05;;
75639;SDS011;64233;51.486;6.332;2023-05-10T06:50:29;45.38;;;17.52;;
75639;SDS011;64233;51.486;6.332;2023-05-10T06:52:54;42.45;;;15.20;;
75639;SDS011;64233;51.486;6.332;2023-05-10T06:55:20;34.60;;;15.05;;
75639;SDS011;64233;51.486;6.332;2023-05-10T06:57:46;38.92;;;14.95;;
75639;SDS011;64233;51.486;6.332;2023-05-10T07:00:12;44.78;;;16.63;;
75639;SDS011;64233;51.486;6.332;2023-05-10T07:02:38;47.47;;;17.17;;
75639;SDS011;64233;51.486;6.332;2023-05-10T07:05:03;41.63;;;17.30;;
75639;SDS011;64233;51.486;6.332;2023-05-10T07:07:29;42.97;;;18.30;;
75639;SDS011;64233;51.486;6.332;2023-05-10T07:09:54;40.65;;;15.50;;
75639;SDS011;64233;51.486;6.332;2023-05-10T07:12:21;38.80;;;17.65;;
75639;SDS011;64233;51.486;6.332;2023-05-10T07:14:46;38.33;;;16.38;;
75639;SDS011;64233;51.486;6.332;2023-05-10T07:17:12;43.20;;;16.63;;
75639;SDS011;64233;51.486;6.332;2023-05-10T07:19:37;36.45;;;15.30;;
75639;SDS011;64233;51.486;6.332;2023-05-10T07:22:02;36.78;;;15.32;;
75639;SDS011;64233;51.486;6.332;2023-05-10T07:24:27;33.42;;;15.15;;
75639;SDS011;64233;51.486;6.332;2023-05-10T07:26:53;31.53;;;13.20;;
75639;SDS011;64233;51.486;6.332;2023-05-10T07:29:18;31.55;;;13.00;;
75639;SDS011;64233;51.486;6.332;2023-05-10T07:31:43;37.22;;;15.02;;
75639;SDS011;64233;51.486;6.332;2023-05-10T07:34:08;35.70;;;13.88;;
75639;SDS011;64233;51.486;6.332;2023-05-10T07:36:34;35.08;;;14.65;;
75639;SDS011;64233;51.486;6.332;2023-05-10T07:39:00;40.65;;;16.00;;
75639;SDS011;64233;51.486;6.332;2023-05-10T07:41:25;37.67;;;15.57;;
75639;SDS011;64233;51.486;6.332;2023-05-10T07:43:50;42.92;;;16.05;;
75639;SDS011;64233;51.486;6.332;2023-05-10T07:46:16;35.15;;;13.60;;
75639;SDS011;64233;51.486;6.332;2023-05-10T07:48:41;39.35;;;16.08;;
75639;SDS011;64233;51.486;6.332;2023-05-10T07:51:06;32.60;;;14.48;;
75639;SDS011;64233;51.486;6.332;2023-05-10T07:53:34;33.35;;;14.02;;
75639;SDS011;64233;51.486;6.332;2023-05-10T07:56:19;26.60;;;13.35;;
75639;SDS011;64233;51.486;6.332;2023-05-10T08:01:11;27.97;;;12.13;;
75639;SDS011;64233;51.486;6.332;2023-05-10T08:03:36;24.45;;;12.35;;
75639;SDS011;64233;51.486;6.332;2023-05-10T08:06:01;29.02;;;11.68;;
75639;SDS011;64233;51.486;6.332;2023-05-10T08:08:27;23.35;;;12.13;;
75639;SDS011;64233;51.486;6.332;2023-05-10T08:10:52;23.42;;;11.43;;
75639;SDS011;64233;51.486;6.332;2023-05-10T08:13:17;25.75;;;11.27;;
75639;SDS011;64233;51.486;6.332;2023-05-10T08:15:42;22.92;;;10.88;;
75639;SDS011;64233;51.486;6.332;2023-05-10T08:18:08;26.00;;;10.50;;
75639;SDS011;64233;51.486;6.332;2023-05-10T08:20:33;21.88;;;10.40;;
75639;SDS011;64233;51.486;6.332;2023-05-10T08:22:58;23.92;;;11.43;;
75639;SDS011;64233;51.486;6.332;2023-05-10T08:25:24;26.27;;;11.30;;
75639;SDS011;64233;51.486;6.332;2023-05-10T08:27:49;21.05;;;11.27;;
75639;SDS011;64233;51.486;6.332;2023-05-10T08:30:14;27.88;;;12.43;;
75639;SDS011;64233;51.486;6.332;2023-05-10T08:32:40;23.40;;;10.80;;
75639;SDS011;64233;51.486;6.332;2023-05-10T08:35:05;23.33;;;11.27;;
75639;SDS011;64233;51.486;6.332;2023-05-10T08:37:30;27.65;;;12.55;;
75639;SDS011;64233;51.486;6.332;2023-05-10T08:39:57;21.60;;;10.38;;
75639;SDS011;64233;51.486;6.332;2023-05-10T08:42:22;21.48;;;10.73;;
75639;SDS011;64233;51.486;6.332;2023-05-10T08:44:53;22.40;;;11.00;;
75639;SDS011;64233;51.486;6.332;2023-05-10T08:47:20;19.83;;;10.30;;
75639;SDS011;64233;51.486;6.332;2023-05-10T08:49:47;24.48;;;11.65;;
75639;SDS011;64233;51.486;6.332;2023-05-10T08:52:15;22.85;;;10.93;;
75639;SDS011;64233;51.486;6.332;2023-05-10T08:54:42;24.23;;;11.25;;
75639;SDS011;64233;51.486;6.332;2023-05-10T08:57:08;27.40;;;11.80;;
75639;SDS011;64233;51.486;6.332;2023-05-10T08:59:33;27.30;;;12.10;;
75639;SDS011;64233;51.486;6.332;2023-05-10T09:01:58;18.67;;;10.70;;
75639;SDS011;64233;51.486;6.332;2023-05-10T09:04:25;23.98;;;11.90;;
75639;SDS011;64233;51.486;6.332;2023-05-10T09:06:51;27.67;;;13.50;;
75639;SDS011;64233;51.486;6.332;2023-05-10T09:09:17;26.60;;;11.55;;
75639;SDS011;64233;51.486;6.332;2023-05-10T09:11:43;20.35;;;10.32;;
75639;SDS011;64233;51.486;6.332;2023-05-10T09:14:09;28.85;;;11.82;;
75639;SDS011;64233;51.486;6.332;2023-05-10T09:16:35;24.05;;;10.88;;
75639;SDS011;64233;51.486;6.332;2023-05-10T09:19:00;24.02;;;12.07;;
75639;SDS011;64233;51.486;6.332;2023-05-10T09:21:25;26.25;;;10.75;;
75639;SDS011;64233;51.486;6.332;2023-05-10T09:23:51;21.92;;;11.10;;
75639;SDS011;64233;51.486;6.332;2023-05-10T09:26:21;24.60;;;11.20;;
75639;SDS011;64233;51.486;6.332;2023-05-10T09:28:54;30.08;;;11.70;;
75639;SDS011;64233;51.486;6.332;2023-05-10T09:31:21;26.95;;;12.00;;
75639;SDS011;64233;51.486;6.332;2023-05-10T09:33:47;24.63;;;10.80;;
75639;SDS011;64233;51.486;6.332;2023-05-10T09:36:13;21.60;;;10.77;;
75639;SDS011;64233;51.486;6.332;2023-05-10T09:38:46;24.15;;;12.50;;
75639;SDS011;64233;51.486;6.332;2023-05-10T09:43:44;27.33;;;12.43;;
75639;SDS011;64233;51.486;6.332;2023-05-10T09:46:09;24.52;;;12.50;;
75639;SDS011;64233;51.486;6.332;2023-05-10T09:48:39;24.13;;;11.98;;
75639;SDS011;64233;51.486;6.332;2023-05-10T09:51:07;21.55;;;11.63;;
75639;SDS011;64233;51.486;6.332;2023-05-10T09:53:32;25.08;;;11.80;;
75639;SDS011;64233;51.486;6.332;2023-05-10T09:55:57;25.52;;;12.65;;
75639;SDS011;64233;51.486;6.332;2023-05-10T09:58:23;24.85;;;12.45;;
75639;SDS011;64233;51.486;6.332;2023-05-10T10:00:48;28.25;;;12.80;;
75639;SDS011;64233;51.486;6.332;2023-05-10T10:03:20;25.98;;;11.57;;
75639;SDS011;64233;51.486;6.332;2023-05-10T10:05:46;26.20;;;11.23;;
75639;SDS011;64233;51.486;6.332;2023-05-10T10:08:13;26.02;;;13.15;;
75639;SDS011;64233;51.486;6.332;2023-05-10T10:10:39;25.98;;;12.07;;
75639;SDS011;64233;51.486;6.332;2023-05-10T10:13:10;23.38;;;12.90;;
75639;SDS011;64233;51.486;6.332;2023-05-10T10:15:35;22.52;;;11.95;;
75639;SDS011;64233;51.486;6.332;2023-05-10T10:18:00;25.75;;;11.10;;
75639;SDS011;64233;51.486;6.332;2023-05-10T10:20:26;20.15;;;10.55;;
75639;SDS011;64233;51.486;6.332;2023-05-10T10:22:53;15.70;;;9.07;;
75639;SDS011;64233;51.486;6.332;2023-05-10T10:25:19;20.10;;;10.35;;
75639;SDS011;64233;51.486;6.332;2023-05-10T10:35:51;15.88;;;9.32;;
75639;SDS011;64233;51.486;6.332;2023-05-10T10:38:17;17.23;;;8.38;;
75639;SDS011;64233;51.486;6.332;2023-05-10T10:40:43;17.42;;;9.48;;
75639;SDS011;64233;51.486;6.332;2023-05-10T10:43:21;18.70;;;9.40;;
75639;SDS011;64233;51.486;6.332;2023-05-10T10:48:39;17.95;;;8.25;;
75639;SDS011;64233;51.486;6.332;2023-05-10T10:51:16;13.35;;;7.55;;
75639;SDS011;64233;51.486;6.332;2023-05-10T10:53:41;13.20;;;7.63;;
75639;SDS011;64233;51.486;6.332;2023-05-10T10:56:08;16.63;;;8.07;;
75639;SDS011;64233;51.486;6.332;2023-05-10T10:58:38;17.90;;;9.05;;
75639;SDS011;64233;51.486;6.332;2023-05-10T11:03:36;15.45;;;8.05;;
75639;SDS011;64233;51.486;6.332;2023-05-10T11:06:01;14.02;;;7.95;;
75639;SDS011;64233;51.486;6.332;2023-05-10T11:08:31;15.73;;;7.22;;
75639;SDS011;64233;51.486;6.332;2023-05-10T11:13:31;14.10;;;8.18;;
75639;SDS011;64233;51.486;6.332;2023-05-10T11:16:10;12.80;;;7.15;;
75639;SDS011;64233;51.486;6.332;2023-05-10T11:18:39;12.65;;;7.03;;
75639;SDS011;64233;51.486;6.332;2023-05-10T11:21:04;13.32;;;7.80;;
75639;SDS011;64233;51.486;6.332;2023-05-10T11:26:08;17.08;;;7.65;;
75639;SDS011;64233;51.486;6.332;2023-05-10T11:28:43;13.18;;;6.78;;
75639;SDS011;64233;51.486;6.332;2023-05-10T11:31:09;10.45;;;6.68;;
75639;SDS011;64233;51.486;6.332;2023-05-10T11:33:47;12.32;;;6.63;;
75639;SDS011;64233;51.486;6.332;2023-05-10T11:36:13;15.68;;;7.40;;
75639;SDS011;64233;51.486;6.332;2023-05-10T11:38:40;12.20;;;6.43;;
75639;SDS011;64233;51.486;6.332;2023-05-10T11:41:07;12.50;;;6.80;;
75639;SDS011;64233;51.486;6.332;2023-05-10T11:43:34;10.15;;;6.10;;
75639;SDS011;64233;51.486;6.332;2023-05-10T11:46:01;10.80;;;6.82;;
75639;SDS011;64233;51.486;6.332;2023-05-10T11:48:29;9.75;;;6.70;;
75639;SDS011;64233;51.486;6.332;2023-05-10T11:50:54;9.88;;;6.20;;
75639;SDS011;64233;51.486;6.332;2023-05-10T11:53:21;11.73;;;5.80;;
75639;SDS011;64233;51.486;6.332;2023-05-10T11:55:47;10.33;;;5.87;;
75639;SDS011;64233;51.486;6.332;2023-05-10T11:58:13;10.13;;;6.78;;
75639;SDS011;64233;51.486;6.332;2023-05-10T12:00:38;7.30;;;5.07;;
75639;SDS011;64233;51.486;6.332;2023-05-10T12:03:04;7.30;;;5.20;;
75639;SDS011;64233;51.486;6.332;2023-05-10T12:05:31;10.02;;;4.95;;
75639;SDS011;64233;51.486;6.332;2023-05-10T12:08:10;7.97;;;4.93;;
75639;SDS011;64233;51.486;6.332;2023-05-10T12:10:45;11.05;;;5.65;;
75639;SDS011;64233;51.486;6.332;2023-05-10T12:13:11;7.10;;;4.97;;
75639;SDS011;64233;51.486;6.332;2023-05-10T12:15:38;10.82;;;6.00;;
75639;SDS011;64233;51.486;6.332;2023-05-10T12:18:03;13.73;;;6.47;;
75639;SDS011;64233;51.486;6.332;2023-05-10T12:20:30;9.50;;;5.85;;
75639;SDS011;64233;51.486;6.332;2023-05-10T12:22:56;12.00;;;6.53;;
75639;SDS011;64233;51.486;6.332;2023-05-10T12:25:23;11.25;;;7.15;;
75639;SDS011;64233;51.486;6.332;2023-05-10T12:27:55;9.13;;;5.85;;
75639;SDS011;64233;51.486;6.332;2023-05-10T12:30:22;11.13;;;6.32;;
75639;SDS011;64233;51.486;6.332;2023-05-10T12:32:52;12.52;;;7.20;;
75639;SDS011;64233;51.486;6.332;2023-05-10T12:35:18;11.32;;;6.50;;
75639;SDS011;64233;51.486;6.332;2023-05-10T12:37:48;12.77;;;7.60;;
75639;SDS011;64233;51.486;6.332;2023-05-10T12:40:14;10.55;;;6.13;;
75639;SDS011;64233;51.486;6.332;2023-05-10T12:42:39;14.70;;;7.10;;
75639;SDS011;64233;51.486;6.332;2023-05-10T12:45:05;9.27;;;6.78;;
75639;SDS011;64233;51.486;6.332;2023-05-10T12:47:31;14.48;;;7.47;;
75639;SDS011;64233;51.486;6.332;2023-05-10T12:49:57;13.63;;;7.10;;
75639;SDS011;64233;51.486;6.332;2023-05-10T12:52:23;15.23;;;9.43;;
75639;SDS011;64233;51.486;6.332;2023-05-10T12:54:49;14.88;;;8.20;;
75639;SDS011;64233;51.486;6.332;2023-05-10T12:57:15;14.65;;;8.90;;
75639;SDS011;64233;51.486;6.332;2023-05-10T12:59:40;15.10;;;8.38;;
75639;SDS011;64233;51.486;6.332;2023-05-10T13:02:06;13.18;;;8.38;;
75639;SDS011;64233;51.486;6.332;2023-05-10T13:04:31;13.35;;;7.60;;
75639;SDS011;64233;51.486;6.332;2023-05-10T13:06:56;13.27;;;8.32;;
75639;SDS011;64233;51.486;6.332;2023-05-10T13:09:23;16.08;;;8.77;;
75639;SDS011;64233;51.486;6.332;2023-05-10T13:11:50;15.18;;;9.90;;
75639;SDS011;64233;51.486;6.332;2023-05-10T13:14:15;14.07;;;8.88;;
75639;SDS011;64233;51.486;6.332;2023-05-10T13:16:40;15.80;;;9.93;;
75639;SDS011;64233;51.486;6.332;2023-05-10T13:19:06;15.48;;;8.90;;
75639;SDS011;64233;51.486;6.332;2023-05-10T13:21:31;15.32;;;9.18;;
75639;SDS011;64233;51.486;6.332;2023-05-10T13:23:57;17.80;;;10.00;;
75639;SDS011;64233;51.486;6.332;2023-05-10T13:26:22;19.13;;;10.50;;
75639;SDS011;64233;51.486;6.332;2023-05-10T13:28:48;20.33;;;10.40;;
75639;SDS011;64233;51.486;6.332;2023-05-10T13:31:14;18.52;;;9.77;;
75639;SDS011;64233;51.486;6.332;2023-05-10T13:33:39;19.95;;;10.68;;
75639;SDS011;64233;51.486;6.332;2023-05-10T13:36:05;25.13;;;11.37;;
75639;SDS011;64233;51.486;6.332;2023-05-10T13:38:31;18.52;;;10.23;;
75639;SDS011;64233;51.486;6.332;2023-05-10T13:40:56;16.55;;;10.05;;
75639;SDS011;64233;51.486;6.332;2023-05-10T13:43:22;21.73;;;12.23;;
75639;SDS011;64233;51.486;6.332;2023-05-10T13:45:47;23.02;;;12.25;;
75639;SDS011;64233;51.486;6.332;2023-05-10T13:48:12;24.00;;;11.25;;
75639;SDS011;64233;51.486;6.332;2023-05-10T13:50:38;23.23;;;12.85;;
75639;SDS011;64233;51.486;6.332;2023-05-10T13:53:03;21.92;;;11.95;;
75639;SDS011;64233;51.486;6.332;2023-05-10T13:55:28;21.52;;;11.50;;
75639;SDS011;64233;51.486;6.332;2023-05-10T13:57:54;20.50;;;11.25;;
75639;SDS011;64233;51.486;6.332;2023-05-10T14:00:19;19.40;;;10.80;;
75639;SDS011;64233;51.486;6.332;2023-05-10T14:02:44;8.18;;;5.75;;
75639;SDS011;64233;51.486;6.332;2023-05-10T14:05:09;6.13;;;2.92;;
75639;SDS011;64233;51.486;6.332;2023-05-10T14:07:35;3.33;;;2.20;;
75639;SDS011;64233;51.486;6.332;2023-05-10T14:10:00;3.85;;;2.17;;
75639;SDS011;64233;51.486;6.332;2023-05-10T14:12:26;7.38;;;3.08;;
75639;SDS011;64233;51.486;6.332;2023-05-10T14:14:51;7.32;;;3.33;;
75639;SDS011;64233;51.486;6.332;2023-05-10T14:17:17;6.22;;;3.05;;
75639;SDS011;64233;51.486;6.332;2023-05-10T14:19:42;6.88;;;2.70;;
75639;SDS011;64233;51.486;6.332;2023-05-10T14:22:08;5.15;;;3.15;;
75639;SDS011;64233;51.486;6.332;2023-05-10T14:24:33;7.22;;;3.20;;
75639;SDS011;64233;51.486;6.332;2023-05-10T14:27:01;6.18;;;3.40;;
75639;SDS011;64233;51.486;6.332;2023-05-10T14:29:27;4.57;;;3.80;;
75639;SDS011;64233;51.486;6.332;2023-05-10T14:31:52;5.35;;;3.53;;
75639;SDS011;64233;51.486;6.332;2023-05-10T14:34:17;7.00;;;4.13;;
75639;SDS011;64233;51.486;6.332;2023-05-10T14:36:42;6.75;;;3.88;;
75639;SDS011;64233;51.486;6.332;2023-05-10T14:39:08;9.20;;;3.25;;
75639;SDS011;64233;51.486;6.332;2023-05-10T14:41:35;6.65;;;2.85;;
75639;SDS011;64233;51.486;6.332;2023-05-10T14:44:00;2.53;;;2.13;;
75639;SDS011;64233;51.486;6.332;2023-05-10T14:46:26;3.88;;;2.28;;
75639;SDS011;64233;51.486;6.332;2023-05-10T14:48:52;3.95;;;2.58;;
75639;SDS011;64233;51.486;6.332;2023-05-10T14:51:17;6.82;;;2.95;;
75639;SDS011;64233;51.486;6.332;2023-05-10T14:53:46;3.80;;;3.00;;
75639;SDS011;64233;51.486;6.332;2023-05-10T14:56:11;6.13;;;3.00;;
75639;SDS011;64233;51.486;6.332;2023-05-10T14:58:37;4.17;;;2.47;;
75639;SDS011;64233;51.486;6.332;2023-05-10T15:01:02;3.60;;;2.60;;